sensor_id;sensor_type;location;lat;lon;timestamp;temperature;humidity
69938;DHT22;57248;47.320;15.998;2022-07-18T00:01:39;13.08;79.09
69938;DHT22;57248;47.320;15.998;2022-07-18T00:04:05;12.77;80.44
69938;DHT22;57248;47.320;15.998;2022-07-18T00:06:30;12.72;80.78
69938;DHT22;57248;47.320;15.998;2022-07-18T00:08:56;12.82;80.45
69938;DHT22;57248;47.320;15.998;2022-07-18T00:11:21;12.84;80.20
69938;DHT22;57248;47.320;15.998;2022-07-18T00:13:47;12.79;80.49
69938;DHT22;57248;47.320;15.998;2022-07-18T00:16:13;12.78;80.62
69938;DHT22;57248;47.320;15.998;2022-07-18T00:18:38;12.82;80.37
69938;DHT22;57248;47.320;15.998;2022-07-18T00:21:04;12.84;80.22
69938;DHT22;57248;47.320;15.998;2022-07-18T00:23:30;12.71;79.88
69938;DHT22;57248;47.320;15.998;2022-07-18T00:25:55;12.71;79.22
69938;DHT22;57248;47.320;15.998;2022-07-18T00:28:20;12.54;80.48
69938;DHT22;57248;47.320;15.998;2022-07-18T00:30:46;12.55;80.38
69938;DHT22;57248;47.320;15.998;2022-07-18T00:33:12;12.50;79.98
69938;DHT22;57248;47.320;15.998;2022-07-18T00:35:39;12.37;80.79
69938;DHT22;57248;47.320;15.998;2022-07-18T00:38:04;12.33;81.04
69938;DHT22;57248;47.320;15.998;2022-07-18T00:40:32;12.36;80.56
69938;DHT22;57248;47.320;15.998;2022-07-18T00:42:57;12.38;80.72
69938;DHT22;57248;47.320;15.998;2022-07-18T00:45:23;12.30;81.51
69938;DHT22;57248;47.320;15.998;2022-07-18T00:47:48;12.29;81.86
69938;DHT22;57248;47.320;15.998;2022-07-18T00:50:18;12.21;82.60
69938;DHT22;57248;47.320;15.998;2022-07-18T00:52:44;12.27;81.71
69938;DHT22;57248;47.320;15.998;2022-07-18T00:55:10;12.31;81.43
69938;DHT22;57248;47.320;15.998;2022-07-18T00:57:37;12.31;81.51
69938;DHT22;57248;47.320;15.998;2022-07-18T01:00:10;12.26;81.65
69938;DHT22;57248;47.320;15.998;2022-07-18T01:02:55;12.14;81.53
69938;DHT22;57248;47.320;15.998;2022-07-18T01:05:21;12.07;82.19
69938;DHT22;57248;47.320;15.998;2022-07-18T01:07:46;12.03;82.15
69938;DHT22;57248;47.320;15.998;2022-07-18T01:10:12;12.00;81.64
69938;DHT22;57248;47.320;15.998;2022-07-18T01:12:37;11.90;82.61
69938;DHT22;57248;47.320;15.998;2022-07-18T01:15:04;11.90;82.24
69938;DHT22;57248;47.320;15.998;2022-07-18T01:17:31;11.86;82.69
69938;DHT22;57248;47.320;15.998;2022-07-18T01:19:56;11.85;82.63
69938;DHT22;57248;47.320;15.998;2022-07-18T01:22:22;11.86;82.26
69938;DHT22;57248;47.320;15.998;2022-07-18T01:24:48;11.87;82.91
69938;DHT22;57248;47.320;15.998;2022-07-18T01:27:16;11.96;82.84
69938;DHT22;57248;47.320;15.998;2022-07-18T01:29:44;11.89;83.23
69938;DHT22;57248;47.320;15.998;2022-07-18T01:32:10;11.86;82.41
69938;DHT22;57248;47.320;15.998;2022-07-18T01:34:37;11.83;83.35
69938;DHT22;57248;47.320;15.998;2022-07-18T01:37:05;11.85;83.43
69938;DHT22;57248;47.320;15.998;2022-07-18T01:39:31;11.78;82.95
69938;DHT22;57248;47.320;15.998;2022-07-18T01:41:57;11.78;82.88
69938;DHT22;57248;47.320;15.998;2022-07-18T01:44:24;11.72;83.13
69938;DHT22;57248;47.320;15.998;2022-07-18T01:46:50;11.69;83.20
69938;DHT22;57248;47.320;15.998;2022-07-18T01:49:16;11.61;82.91
69938;DHT22;57248;47.320;15.998;2022-07-18T01:51:49;11.49;83.10
69938;DHT22;57248;47.320;15.998;2022-07-18T01:54:15;11.49;83.61
69938;DHT22;57248;47.320;15.998;2022-07-18T01:56:41;11.55;83.41
69938;DHT22;57248;47.320;15.998;2022-07-18T01:59:07;11.51;82.74
69938;DHT22;57248;47.320;15.998;2022-07-18T02:01:33;11.48;83.20
69938;DHT22;57248;47.320;15.998;2022-07-18T02:03:58;11.43;83.39
69938;DHT22;57248;47.320;15.998;2022-07-18T02:06:24;11.42;83.73
69938;DHT22;57248;47.320;15.998;2022-07-18T02:08:49;11.36;83.05
69938;DHT22;57248;47.320;15.998;2022-07-18T02:11:15;11.32;83.49
69938;DHT22;57248;47.320;15.998;2022-07-18T02:13:40;11.17;84.28
69938;DHT22;57248;47.320;15.998;2022-07-18T02:16:06;11.30;83.98
69938;DHT22;57248;47.320;15.998;2022-07-18T02:18:32;11.27;83.71
69938;DHT22;57248;47.320;15.998;2022-07-18T02:21:01;11.24;83.84
69938;DHT22;57248;47.320;15.998;2022-07-18T02:23:27;11.27;84.45
69938;DHT22;57248;47.320;15.998;2022-07-18T02:25:55;11.20;84.71
69938;DHT22;57248;47.320;15.998;2022-07-18T02:28:21;11.21;84.19
69938;DHT22;57248;47.320;15.998;2022-07-18T02:30:48;11.22;84.53
69938;DHT22;57248;47.320;15.998;2022-07-18T02:33:17;11.20;85.60
69938;DHT22;57248;47.320;15.998;2022-07-18T02:35:43;11.21;84.89
69938;DHT22;57248;47.320;15.998;2022-07-18T02:38:09;11.22;85.16
69938;DHT22;57248;47.320;15.998;2022-07-18T02:40:35;11.24;84.95
69938;DHT22;57248;47.320;15.998;2022-07-18T02:43:00;11.17;85.01
69938;DHT22;57248;47.320;15.998;2022-07-18T02:45:26;11.25;85.63
69938;DHT22;57248;47.320;15.998;2022-07-18T02:47:52;11.22;86.57
69938;DHT22;57248;47.320;15.998;2022-07-18T02:50:19;11.35;87.03
69938;DHT22;57248;47.320;15.998;2022-07-18T02:52:44;11.39;86.10
69938;DHT22;57248;47.320;15.998;2022-07-18T02:55:11;11.42;86.10
69938;DHT22;57248;47.320;15.998;2022-07-18T02:57:37;11.41;85.70
69938;DHT22;57248;47.320;15.998;2022-07-18T03:00:08;11.38;85.52
69938;DHT22;57248;47.320;15.998;2022-07-18T03:02:34;11.27;85.00
69938;DHT22;57248;47.320;15.998;2022-07-18T03:05:01;11.12;85.83
69938;DHT22;57248;47.320;15.998;2022-07-18T03:07:26;11.17;85.24
69938;DHT22;57248;47.320;15.998;2022-07-18T03:09:52;11.24;85.77
69938;DHT22;57248;47.320;15.998;2022-07-18T03:12:18;11.18;85.13
69938;DHT22;57248;47.320;15.998;2022-07-18T03:14:47;11.08;86.32
69938;DHT22;57248;47.320;15.998;2022-07-18T03:17:14;11.08;86.87
69938;DHT22;57248;47.320;15.998;2022-07-18T03:19:40;11.11;86.23
69938;DHT22;57248;47.320;15.998;2022-07-18T03:22:05;11.17;86.83
69938;DHT22;57248;47.320;15.998;2022-07-18T03:24:31;11.04;86.75
69938;DHT22;57248;47.320;15.998;2022-07-18T03:26:57;11.03;86.97
69938;DHT22;57248;47.320;15.998;2022-07-18T03:29:23;11.07;86.47
69938;DHT22;57248;47.320;15.998;2022-07-18T03:31:49;11.10;86.97
69938;DHT22;57248;47.320;15.998;2022-07-18T03:34:15;11.24;86.42
69938;DHT22;57248;47.320;15.998;2022-07-18T03:36:41;11.27;85.86
69938;DHT22;57248;47.320;15.998;2022-07-18T03:39:08;11.35;86.13
69938;DHT22;57248;47.320;15.998;2022-07-18T03:41:34;11.42;85.82
69938;DHT22;57248;47.320;15.998;2022-07-18T03:44:00;11.39;86.11
69938;DHT22;57248;47.320;15.998;2022-07-18T03:46:25;11.54;85.92
69938;DHT22;57248;47.320;15.998;2022-07-18T03:48:51;11.63;85.31
69938;DHT22;57248;47.320;15.998;2022-07-18T03:51:16;11.72;85.39
69938;DHT22;57248;47.320;15.998;2022-07-18T03:53:42;11.71;85.15
69938;DHT22;57248;47.320;15.998;2022-07-18T03:56:08;11.83;85.91
69938;DHT22;57248;47.320;15.998;2022-07-18T03:58:33;11.93;85.05
69938;DHT22;57248;47.320;15.998;2022-07-18T04:01:00;11.99;84.75
69938;DHT22;57248;47.320;15.998;2022-07-18T04:03:26;12.04;85.14
69938;DHT22;57248;47.320;15.998;2022-07-18T04:05:51;12.17;84.37
69938;DHT22;57248;47.320;15.998;2022-07-18T04:08:17;12.09;85.17
69938;DHT22;57248;47.320;15.998;2022-07-18T04:10:43;12.23;84.63
69938;DHT22;57248;47.320;15.998;2022-07-18T04:13:08;12.30;84.94
69938;DHT22;57248;47.320;15.998;2022-07-18T04:15:35;12.42;85.73
69938;DHT22;57248;47.320;15.998;2022-07-18T04:18:00;12.50;85.00
69938;DHT22;57248;47.320;15.998;2022-07-18T04:20:26;12.57;85.05
69938;DHT22;57248;47.320;15.998;2022-07-18T04:22:52;12.62;84.71
69938;DHT22;57248;47.320;15.998;2022-07-18T04:25:19;12.72;84.23
69938;DHT22;57248;47.320;15.998;2022-07-18T04:27:46;12.88;83.65
69938;DHT22;57248;47.320;15.998;2022-07-18T04:30:13;13.02;83.32
69938;DHT22;57248;47.320;15.998;2022-07-18T04:32:39;13.27;82.62
69938;DHT22;57248;47.320;15.998;2022-07-18T04:35:06;13.29;82.77
69938;DHT22;57248;47.320;15.998;2022-07-18T04:37:32;13.43;82.59
69938;DHT22;57248;47.320;15.998;2022-07-18T04:39:59;13.53;83.11
69938;DHT22;57248;47.320;15.998;2022-07-18T04:42:24;13.67;82.74
69938;DHT22;57248;47.320;15.998;2022-07-18T04:44:50;13.77;82.64
69938;DHT22;57248;47.320;15.998;2022-07-18T04:47:16;13.92;82.00
69938;DHT22;57248;47.320;15.998;2022-07-18T04:49:42;14.05;81.70
69938;DHT22;57248;47.320;15.998;2022-07-18T04:52:07;14.17;81.30
69938;DHT22;57248;47.320;15.998;2022-07-18T04:54:33;14.26;81.12
69938;DHT22;57248;47.320;15.998;2022-07-18T04:56:58;14.50;80.86
69938;DHT22;57248;47.320;15.998;2022-07-18T04:59:24;14.77;79.72
69938;DHT22;57248;47.320;15.998;2022-07-18T05:01:50;14.90;79.88
69938;DHT22;57248;47.320;15.998;2022-07-18T05:04:15;14.96;80.46
69938;DHT22;57248;47.320;15.998;2022-07-18T05:06:41;15.08;79.65
69938;DHT22;57248;47.320;15.998;2022-07-18T05:09:06;15.34;78.10
69938;DHT22;57248;47.320;15.998;2022-07-18T05:11:32;15.54;79.19
69938;DHT22;57248;47.320;15.998;2022-07-18T05:13:57;15.69;78.72
69938;DHT22;57248;47.320;15.998;2022-07-18T05:16:23;15.85;79.57
69938;DHT22;57248;47.320;15.998;2022-07-18T05:18:48;16.06;77.65
69938;DHT22;57248;47.320;15.998;2022-07-18T05:21:14;16.12;77.86
69938;DHT22;57248;47.320;15.998;2022-07-18T05:23:39;16.18;78.29
69938;DHT22;57248;47.320;15.998;2022-07-18T05:26:05;16.30;78.21
69938;DHT22;57248;47.320;15.998;2022-07-18T05:28:31;16.46;78.02
69938;DHT22;57248;47.320;15.998;2022-07-18T05:30:56;16.57;77.96
69938;DHT22;57248;47.320;15.998;2022-07-18T05:33:22;16.81;75.90
69938;DHT22;57248;47.320;15.998;2022-07-18T05:35:48;16.94;75.27
69938;DHT22;57248;47.320;15.998;2022-07-18T05:38:13;17.22;75.32
69938;DHT22;57248;47.320;15.998;2022-07-18T05:40:39;17.57;74.33
69938;DHT22;57248;47.320;15.998;2022-07-18T05:43:04;17.81;73.92
69938;DHT22;57248;47.320;15.998;2022-07-18T05:45:30;18.04;70.50
69938;DHT22;57248;47.320;15.998;2022-07-18T05:47:56;18.53;70.29
69938;DHT22;57248;47.320;15.998;2022-07-18T05:50:23;18.82;70.15
69938;DHT22;57248;47.320;15.998;2022-07-18T05:52:50;19.08;69.57
69938;DHT22;57248;47.320;15.998;2022-07-18T05:55:16;19.11;67.70
69938;DHT22;57248;47.320;15.998;2022-07-18T05:57:42;19.21;67.90
69938;DHT22;57248;47.320;15.998;2022-07-18T06:00:09;19.28;67.17
69938;DHT22;57248;47.320;15.998;2022-07-18T06:02:35;19.34;68.05
69938;DHT22;57248;47.320;15.998;2022-07-18T06:05:01;19.54;65.98
69938;DHT22;57248;47.320;15.998;2022-07-18T06:07:26;19.76;65.11
69938;DHT22;57248;47.320;15.998;2022-07-18T06:09:52;20.19;62.98
69938;DHT22;57248;47.320;15.998;2022-07-18T06:12:17;20.60;61.50
69938;DHT22;57248;47.320;15.998;2022-07-18T06:14:43;20.88;59.98
69938;DHT22;57248;47.320;15.998;2022-07-18T06:17:09;21.15;60.48
69938;DHT22;57248;47.320;15.998;2022-07-18T06:19:34;21.54;60.03
69938;DHT22;57248;47.320;15.998;2022-07-18T06:22:00;21.81;58.11
69938;DHT22;57248;47.320;15.998;2022-07-18T06:24:26;22.00;57.60
69938;DHT22;57248;47.320;15.998;2022-07-18T06:26:51;22.22;56.49
69938;DHT22;57248;47.320;15.998;2022-07-18T06:29:17;22.49;55.17
69938;DHT22;57248;47.320;15.998;2022-07-18T06:31:43;22.80;55.34
69938;DHT22;57248;47.320;15.998;2022-07-18T06:34:08;22.88;53.73
69938;DHT22;57248;47.320;15.998;2022-07-18T06:36:34;22.88;52.18
69938;DHT22;57248;47.320;15.998;2022-07-18T06:38:59;23.02;51.76
69938;DHT22;57248;47.320;15.998;2022-07-18T06:41:25;23.10;51.97
69938;DHT22;57248;47.320;15.998;2022-07-18T06:43:52;23.67;49.63
69938;DHT22;57248;47.320;15.998;2022-07-18T06:46:18;23.85;49.54
69938;DHT22;57248;47.320;15.998;2022-07-18T06:48:45;23.98;48.96
69938;DHT22;57248;47.320;15.998;2022-07-18T06:51:10;24.04;48.60
69938;DHT22;57248;47.320;15.998;2022-07-18T06:53:36;24.10;45.58
69938;DHT22;57248;47.320;15.998;2022-07-18T06:56:02;24.43;40.26
69938;DHT22;57248;47.320;15.998;2022-07-18T06:58:29;24.56;38.01
69938;DHT22;57248;47.320;15.998;2022-07-18T07:00:56;25.07;39.34
69938;DHT22;57248;47.320;15.998;2022-07-18T07:03:22;25.18;40.87
69938;DHT22;57248;47.320;15.998;2022-07-18T07:05:48;25.36;37.08
69938;DHT22;57248;47.320;15.998;2022-07-18T07:08:13;25.28;34.72
69938;DHT22;57248;47.320;15.998;2022-07-18T07:10:40;25.11;35.24
69938;DHT22;57248;47.320;15.998;2022-07-18T07:13:05;25.93;36.89
69938;DHT22;57248;47.320;15.998;2022-07-18T07:15:31;26.01;35.37
69938;DHT22;57248;47.320;15.998;2022-07-18T07:17:57;25.65;35.51
69938;DHT22;57248;47.320;15.998;2022-07-18T07:20:22;26.41;34.65
69938;DHT22;57248;47.320;15.998;2022-07-18T07:22:53;26.03;35.29
69938;DHT22;57248;47.320;15.998;2022-07-18T07:25:20;26.12;35.10
69938;DHT22;57248;47.320;15.998;2022-07-18T07:27:46;26.31;35.07
69938;DHT22;57248;47.320;15.998;2022-07-18T07:30:13;26.37;33.84
69938;DHT22;57248;47.320;15.998;2022-07-18T07:32:41;26.47;34.52
69938;DHT22;57248;47.320;15.998;2022-07-18T07:35:08;26.85;34.95
69938;DHT22;57248;47.320;15.998;2022-07-18T07:37:39;27.36;34.40
69938;DHT22;57248;47.320;15.998;2022-07-18T07:40:05;27.07;32.15
69938;DHT22;57248;47.320;15.998;2022-07-18T07:42:30;27.51;32.20
69938;DHT22;57248;47.320;15.998;2022-07-18T07:44:56;28.16;31.17
69938;DHT22;57248;47.320;15.998;2022-07-18T07:47:22;27.39;30.75
69938;DHT22;57248;47.320;15.998;2022-07-18T07:49:47;28.43;30.57
69938;DHT22;57248;47.320;15.998;2022-07-18T07:52:13;28.21;31.09
69938;DHT22;57248;47.320;15.998;2022-07-18T07:54:40;28.50;30.47
69938;DHT22;57248;47.320;15.998;2022-07-18T07:57:05;27.84;29.79
69938;DHT22;57248;47.320;15.998;2022-07-18T07:59:31;28.38;31.99
69938;DHT22;57248;47.320;15.998;2022-07-18T08:01:58;27.95;31.12
69938;DHT22;57248;47.320;15.998;2022-07-18T08:04:24;29.10;29.42
69938;DHT22;57248;47.320;15.998;2022-07-18T08:06:49;29.66;28.52
69938;DHT22;57248;47.320;15.998;2022-07-18T08:09:15;28.96;27.83
69938;DHT22;57248;47.320;15.998;2022-07-18T08:11:41;30.48;26.18
69938;DHT22;57248;47.320;15.998;2022-07-18T08:14:07;30.40;27.09
69938;DHT22;57248;47.320;15.998;2022-07-18T08:16:32;29.72;26.93
69938;DHT22;57248;47.320;15.998;2022-07-18T08:18:58;29.82;27.71
69938;DHT22;57248;47.320;15.998;2022-07-18T08:21:23;32.03;25.85
69938;DHT22;57248;47.320;15.998;2022-07-18T08:23:49;31.57;27.04
69938;DHT22;57248;47.320;15.998;2022-07-18T08:26:15;31.73;25.96
69938;DHT22;57248;47.320;15.998;2022-07-18T08:28:41;31.96;25.75
69938;DHT22;57248;47.320;15.998;2022-07-18T08:31:06;31.69;26.52
69938;DHT22;57248;47.320;15.998;2022-07-18T08:33:32;33.49;24.44
69938;DHT22;57248;47.320;15.998;2022-07-18T08:35:59;34.53;23.62
69938;DHT22;57248;47.320;15.998;2022-07-18T08:38:24;33.47;25.55
69938;DHT22;57248;47.320;15.998;2022-07-18T08:40:52;34.02;25.10
69938;DHT22;57248;47.320;15.998;2022-07-18T08:43:18;33.60;24.84
69938;DHT22;57248;47.320;15.998;2022-07-18T08:45:45;34.42;24.30
69938;DHT22;57248;47.320;15.998;2022-07-18T08:48:17;34.05;24.13
69938;DHT22;57248;47.320;15.998;2022-07-18T08:50:45;33.85;24.90
69938;DHT22;57248;47.320;15.998;2022-07-18T08:53:12;34.05;26.14
69938;DHT22;57248;47.320;15.998;2022-07-18T08:55:38;33.61;25.65
69938;DHT22;57248;47.320;15.998;2022-07-18T08:58:04;35.20;25.25
69938;DHT22;57248;47.320;15.998;2022-07-18T09:00:30;34.84;25.37
69938;DHT22;57248;47.320;15.998;2022-07-18T09:02:57;33.77;25.84
69938;DHT22;57248;47.320;15.998;2022-07-18T09:05:23;34.69;24.61
69938;DHT22;57248;47.320;15.998;2022-07-18T09:07:49;34.08;26.00
69938;DHT22;57248;47.320;15.998;2022-07-18T09:10:15;35.00;24.72
69938;DHT22;57248;47.320;15.998;2022-07-18T09:12:55;36.92;23.74
69938;DHT22;57248;47.320;15.998;2022-07-18T09:15:22;36.20;23.28
69938;DHT22;57248;47.320;15.998;2022-07-18T09:17:49;35.89;23.38
69938;DHT22;57248;47.320;15.998;2022-07-18T09:20:15;35.27;25.38
69938;DHT22;57248;47.320;15.998;2022-07-18T09:22:46;37.36;23.30
69938;DHT22;57248;47.320;15.998;2022-07-18T09:25:22;35.74;25.20
69938;DHT22;57248;47.320;15.998;2022-07-18T09:27:53;35.30;25.42
69938;DHT22;57248;47.320;15.998;2022-07-18T09:30:29;35.39;25.90
69938;DHT22;57248;47.320;15.998;2022-07-18T09:33:08;35.20;26.78
69938;DHT22;57248;47.320;15.998;2022-07-18T09:35:45;35.71;25.74
69938;DHT22;57248;47.320;15.998;2022-07-18T09:38:15;34.76;25.59
69938;DHT22;57248;47.320;15.998;2022-07-18T09:40:46;35.45;24.88
69938;DHT22;57248;47.320;15.998;2022-07-18T09:43:14;36.68;25.03
69938;DHT22;57248;47.320;15.998;2022-07-18T09:45:43;35.58;26.02
69938;DHT22;57248;47.320;15.998;2022-07-18T09:48:12;35.07;26.51
69938;DHT22;57248;47.320;15.998;2022-07-18T09:50:39;36.17;25.27
69938;DHT22;57248;47.320;15.998;2022-07-18T09:53:30;35.98;24.92
69938;DHT22;57248;47.320;15.998;2022-07-18T09:55:57;36.16;25.05
69938;DHT22;57248;47.320;15.998;2022-07-18T09:58:25;37.26;24.59
69938;DHT22;57248;47.320;15.998;2022-07-18T10:00:52;37.68;23.80
69938;DHT22;57248;47.320;15.998;2022-07-18T10:03:19;36.29;24.30
69938;DHT22;57248;47.320;15.998;2022-07-18T10:05:47;38.52;22.61
69938;DHT22;57248;47.320;15.998;2022-07-18T10:08:16;38.13;22.89
69938;DHT22;57248;47.320;15.998;2022-07-18T10:10:46;37.14;23.44
69938;DHT22;57248;47.320;15.998;2022-07-18T10:13:12;36.50;23.90
69938;DHT22;57248;47.320;15.998;2022-07-18T10:15:40;38.30;22.48
69938;DHT22;57248;47.320;15.998;2022-07-18T10:18:08;36.54;24.22
69938;DHT22;57248;47.320;15.998;2022-07-18T10:20:39;38.95;22.49
69938;DHT22;57248;47.320;15.998;2022-07-18T10:26:19;40.97;19.91
69938;DHT22;57248;47.320;15.998;2022-07-18T10:31:24;40.49;20.90
69938;DHT22;57248;47.320;15.998;2022-07-18T10:33:51;38.51;22.21
69938;DHT22;57248;47.320;15.998;2022-07-18T10:36:21;40.92;19.92
69938;DHT22;57248;47.320;15.998;2022-07-18T10:39:16;36.63;24.05
69938;DHT22;57248;47.320;15.998;2022-07-18T10:57:27;42.01;18.38
69938;DHT22;57248;47.320;15.998;2022-07-18T11:00:06;41.06;19.94
69938;DHT22;57248;47.320;15.998;2022-07-18T11:15:57;40.96;19.40
69938;DHT22;57248;47.320;15.998;2022-07-18T11:18:24;42.31;19.24
69938;DHT22;57248;47.320;15.998;2022-07-18T11:20:52;41.85;19.24
69938;DHT22;57248;47.320;15.998;2022-07-18T11:23:21;40.00;20.39
69938;DHT22;57248;47.320;15.998;2022-07-18T11:25:57;40.56;19.87
69938;DHT22;57248;47.320;15.998;2022-07-18T11:28:27;41.20;19.35
69938;DHT22;57248;47.320;15.998;2022-07-18T11:31:12;42.66;18.63
69938;DHT22;57248;47.320;15.998;2022-07-18T11:34:01;45.42;17.34
69938;DHT22;57248;47.320;15.998;2022-07-18T11:36:31;45.99;18.40
69938;DHT22;57248;47.320;15.998;2022-07-18T11:39:00;47.40;15.68
69938;DHT22;57248;47.320;15.998;2022-07-18T11:41:26;43.66;17.47
69938;DHT22;57248;47.320;15.998;2022-07-18T11:43:53;43.14;17.57
69938;DHT22;57248;47.320;15.998;2022-07-18T11:46:25;36.13;24.48
69938;DHT22;57248;47.320;15.998;2022-07-18T11:49:03;40.02;21.13
69938;DHT22;57248;47.320;15.998;2022-07-18T11:51:36;45.32;18.29
69938;DHT22;57248;47.320;15.998;2022-07-18T11:54:03;42.57;18.05
69938;DHT22;57248;47.320;15.998;2022-07-18T11:56:29;42.09;19.08
69938;DHT22;57248;47.320;15.998;2022-07-18T11:58:54;42.42;18.45
69938;DHT22;57248;47.320;15.998;2022-07-18T12:01:21;43.85;18.86
69938;DHT22;57248;47.320;15.998;2022-07-18T12:03:49;45.73;17.16
69938;DHT22;57248;47.320;15.998;2022-07-18T12:06:23;40.90;19.58
69938;DHT22;57248;47.320;15.998;2022-07-18T12:08:51;39.66;20.57
69938;DHT22;57248;47.320;15.998;2022-07-18T12:11:33;45.52;17.54
69938;DHT22;57248;47.320;15.998;2022-07-18T12:14:13;45.55;16.75
69938;DHT22;57248;47.320;15.998;2022-07-18T12:16:56;43.21;17.98
69938;DHT22;57248;47.320;15.998;2022-07-18T12:19:32;40.78;19.23
69938;DHT22;57248;47.320;15.998;2022-07-18T12:22:09;43.82;18.42
69938;DHT22;57248;47.320;15.998;2022-07-18T12:24:54;41.03;19.51
69938;DHT22;57248;47.320;15.998;2022-07-18T12:27:22;43.15;18.12
69938;DHT22;57248;47.320;15.998;2022-07-18T12:30:02;42.37;18.36
69938;DHT22;57248;47.320;15.998;2022-07-18T12:32:56;43.82;18.03
69938;DHT22;57248;47.320;15.998;2022-07-18T12:35:33;43.93;17.55
69938;DHT22;57248;47.320;15.998;2022-07-18T12:43:37;44.54;17.94
69938;DHT22;57248;47.320;15.998;2022-07-18T12:46:07;42.62;18.77
69938;DHT22;57248;47.320;15.998;2022-07-18T12:48:33;45.60;16.39
69938;DHT22;57248;47.320;15.998;2022-07-18T12:53:34;50.10;14.51
69938;DHT22;57248;47.320;15.998;2022-07-18T12:55:59;51.81;13.67
69938;DHT22;57248;47.320;15.998;2022-07-18T12:58:25;48.28;14.84
69938;DHT22;57248;47.320;15.998;2022-07-18T13:00:51;44.31;16.53
69938;DHT22;57248;47.320;15.998;2022-07-18T13:03:17;40.54;19.81
69938;DHT22;57248;47.320;15.998;2022-07-18T13:05:43;42.25;18.23
69938;DHT22;57248;47.320;15.998;2022-07-18T13:08:09;39.09;21.02
69938;DHT22;57248;47.320;15.998;2022-07-18T13:10:37;34.69;24.97
69938;DHT22;57248;47.320;15.998;2022-07-18T13:13:04;35.86;24.93
69938;DHT22;57248;47.320;15.998;2022-07-18T13:15:30;39.36;21.69
69938;DHT22;57248;47.320;15.998;2022-07-18T13:17:56;42.71;18.42
69938;DHT22;57248;47.320;15.998;2022-07-18T13:20:23;38.48;22.32
69938;DHT22;57248;47.320;15.998;2022-07-18T13:22:49;38.62;21.31
69938;DHT22;57248;47.320;15.998;2022-07-18T13:25:14;39.83;21.27
69938;DHT22;57248;47.320;15.998;2022-07-18T13:27:42;35.89;23.73
69938;DHT22;57248;47.320;15.998;2022-07-18T13:30:08;36.53;25.72
69938;DHT22;57248;47.320;15.998;2022-07-18T13:32:34;43.92;18.49
69938;DHT22;57248;47.320;15.998;2022-07-18T13:35:00;42.21;20.00
69938;DHT22;57248;47.320;15.998;2022-07-18T13:37:26;41.75;18.84
69938;DHT22;57248;47.320;15.998;2022-07-18T13:39:51;42.97;17.97
69938;DHT22;57248;47.320;15.998;2022-07-18T13:42:17;42.13;18.21
69938;DHT22;57248;47.320;15.998;2022-07-18T13:44:44;45.57;17.53
69938;DHT22;57248;47.320;15.998;2022-07-18T13:47:11;48.20;16.19
69938;DHT22;57248;47.320;15.998;2022-07-18T13:49:38;46.92;15.07
69938;DHT22;57248;47.320;15.998;2022-07-18T13:52:04;45.42;15.67
69938;DHT22;57248;47.320;15.998;2022-07-18T13:54:30;42.06;18.99
69938;DHT22;57248;47.320;15.998;2022-07-18T13:56:55;42.56;18.35
69938;DHT22;57248;47.320;15.998;2022-07-18T13:59:21;39.31;20.46
69938;DHT22;57248;47.320;15.998;2022-07-18T14:01:46;41.34;18.97
69938;DHT22;57248;47.320;15.998;2022-07-18T14:04:12;39.12;21.59
69938;DHT22;57248;47.320;15.998;2022-07-18T14:06:37;39.03;20.87
69938;DHT22;57248;47.320;15.998;2022-07-18T14:09:04;42.60;18.56
69938;DHT22;57248;47.320;15.998;2022-07-18T14:11:31;43.19;17.31
69938;DHT22;57248;47.320;15.998;2022-07-18T14:14:03;42.02;18.53
69938;DHT22;57248;47.320;15.998;2022-07-18T14:16:30;42.11;18.46
69938;DHT22;57248;47.320;15.998;2022-07-18T14:18:56;44.30;17.81
69938;DHT22;57248;47.320;15.998;2022-07-18T14:21:21;42.01;19.34
69938;DHT22;57248;47.320;15.998;2022-07-18T14:23:47;39.53;20.67
69938;DHT22;57248;47.320;15.998;2022-07-18T14:26:13;42.70;19.02
69938;DHT22;57248;47.320;15.998;2022-07-18T14:28:39;41.77;18.76
69938;DHT22;57248;47.320;15.998;2022-07-18T14:31:05;43.35;18.88
69938;DHT22;57248;47.320;15.998;2022-07-18T14:33:31;41.70;19.48
69938;DHT22;57248;47.320;15.998;2022-07-18T14:35:57;43.21;18.33
69938;DHT22;57248;47.320;15.998;2022-07-18T14:38:22;45.65;16.30
69938;DHT22;57248;47.320;15.998;2022-07-18T14:40:49;45.72;15.47
69938;DHT22;57248;47.320;15.998;2022-07-18T14:43:14;42.95;17.00
69938;DHT22;57248;47.320;15.998;2022-07-18T14:45:41;41.11;19.18
69938;DHT22;57248;47.320;15.998;2022-07-18T14:48:06;43.86;16.76
69938;DHT22;57248;47.320;15.998;2022-07-18T14:50:32;45.23;16.29
69938;DHT22;57248;47.320;15.998;2022-07-18T14:52:59;48.28;14.70
69938;DHT22;57248;47.320;15.998;2022-07-18T14:55:25;46.78;15.10
69938;DHT22;57248;47.320;15.998;2022-07-18T14:57:50;47.59;14.81
69938;DHT22;57248;47.320;15.998;2022-07-18T15:00:16;47.94;14.44
69938;DHT22;57248;47.320;15.998;2022-07-18T15:02:42;48.13;14.32
69938;DHT22;57248;47.320;15.998;2022-07-18T15:05:08;42.54;17.81
69938;DHT22;57248;47.320;15.998;2022-07-18T15:07:35;39.19;20.25
69938;DHT22;57248;47.320;15.998;2022-07-18T15:10:00;42.73;16.90
69938;DHT22;57248;47.320;15.998;2022-07-18T15:12:26;39.50;19.86
69938;DHT22;57248;47.320;15.998;2022-07-18T15:14:53;40.54;18.94
69938;DHT22;57248;47.320;15.998;2022-07-18T15:17:22;42.73;17.71
69938;DHT22;57248;47.320;15.998;2022-07-18T15:19:47;40.54;19.14
69938;DHT22;57248;47.320;15.998;2022-07-18T15:22:13;39.97;19.24
69938;DHT22;57248;47.320;15.998;2022-07-18T15:24:39;41.17;19.05
69938;DHT22;57248;47.320;15.998;2022-07-18T15:27:04;40.32;19.44
69938;DHT22;57248;47.320;15.998;2022-07-18T15:29:30;40.25;18.66
69938;DHT22;57248;47.320;15.998;2022-07-18T15:31:56;37.86;21.26
69938;DHT22;57248;47.320;15.998;2022-07-18T15:34:23;39.33;20.59
69938;DHT22;57248;47.320;15.998;2022-07-18T15:36:49;37.82;20.79
69938;DHT22;57248;47.320;15.998;2022-07-18T15:39:15;39.08;20.35
69938;DHT22;57248;47.320;15.998;2022-07-18T15:41:40;40.46;19.12
69938;DHT22;57248;47.320;15.998;2022-07-18T15:44:10;41.58;18.03
69938;DHT22;57248;47.320;15.998;2022-07-18T15:46:36;41.11;17.72
69938;DHT22;57248;47.320;15.998;2022-07-18T15:49:03;37.52;20.74
69938;DHT22;57248;47.320;15.998;2022-07-18T15:51:30;38.19;21.16
69938;DHT22;57248;47.320;15.998;2022-07-18T15:53:55;39.69;21.17
69938;DHT22;57248;47.320;15.998;2022-07-18T15:56:21;41.24;19.34
69938;DHT22;57248;47.320;15.998;2022-07-18T15:58:47;39.46;20.12